Time;durP1;ratioP1;P1;durP2;ratioP2;P2;SDS_P1;SDS_P2;PMS_P1;PMS_P2;Temp;Humidity;BMP_temperature;BMP_pressure;BME280_temperature;BME280_humidity;BME280_pressure;Samples;Min_cycle;Max_cycle;Signal;HPM_P1;HPM_P2
2021/05/06 00:04:56;;;;;;;6.63;6.23;;;23.90;78.30;;;;;;3565348;40;20289;-58
2021/05/06 00:32:34;;;;;;;6.10;5.70;;;23.90;78.20;;;;;;3564987;40;20478;-59
2021/05/06 00:35:01;;;;;;;5.67;5.27;;;23.90;78.10;;;;;;3565112;40;20604;-55
2021/05/06 00:37:27;;;;;;;6.40;6.00;;;23.90;78.10;;;;;;3564703;40;20489;-58
2021/05/06 00:39:58;;;;;;;6.17;5.97;;;23.90;78.10;;;;;;3564578;40;20484;-58
2021/05/06 00:42:41;;;;;;;6.30;6.00;;;23.90;78.20;;;;;;3564657;40;20607;-58
2021/05/06 01:02:24;;;;;;;6.13;5.83;;;23.90;78.00;;;;;;3548973;40;20566;-58
2021/05/06 01:04:54;;;;;;;5.93;5.57;;;23.90;78.00;;;;;;3549277;40;20887;-59
2021/05/06 01:12:57;;;;;;;5.83;5.63;;;23.90;77.90;;;;;;3556139;40;20884;-59
2021/05/06 01:15:25;;;;;;;6.37;6.07;;;23.90;77.90;;;;;;3564929;40;20504;-59
2021/05/06 01:17:53;;;;;;;6.03;5.73;;;23.90;78.00;;;;;;3556656;40;20507;-57
2021/05/06 01:20:21;;;;;;;5.33;5.03;;;23.90;78.00;;;;;;3566565;40;20756;-57
2021/05/06 01:22:49;;;;;;;6.20;5.90;;;23.90;78.60;;;;;;3565961;40;20489;-58
2021/05/06 01:25:17;;;;;;;6.03;5.73;;;23.90;77.90;;;;;;3566244;40;20474;-55
2021/05/06 01:27:51;;;;;;;6.77;6.37;;;23.90;77.90;;;;;;3566671;40;20525;-58
2021/05/06 01:30:30;;;;;;;6.40;6.00;;;23.90;77.90;;;;;;3566677;40;20581;-59
2021/05/06 01:33:07;;;;;;;6.03;5.68;;;23.90;78.10;;;;;;3568198;40;20574;-58
2021/05/06 01:35:38;;;;;;;6.27;5.87;;;23.90;78.60;;;;;;3566978;40;20229;-59
2021/05/06 01:38:22;;;;;;;6.10;5.80;;;23.90;77.90;;;;;;3557475;40;20580;-60
2021/05/06 01:43:46;;;;;;;6.93;6.43;;;23.90;77.80;;;;;;3554347;40;20490;-59
2021/05/06 01:57:40;;;;;;;6.30;6.00;;;23.90;77.70;;;;;;3556468;40;20489;-60
2021/05/06 02:00:22;;;;;;;6.53;6.17;;;23.90;77.80;;;;;;3566446;40;20479;-58
2021/05/06 02:02:59;;;;;;;6.07;5.77;;;23.90;77.80;;;;;;3565959;40;21076;-58
2021/05/06 02:05:33;;;;;;;6.00;5.70;;;23.90;77.80;;;;;;3560277;40;20487;-59
2021/05/06 02:08:01;;;;;;;6.17;5.87;;;23.90;77.90;;;;;;3547898;40;20925;-59
2021/05/06 02:10:34;;;;;;;6.43;5.93;;;23.90;77.80;;;;;;3561873;40;20884;-58
2021/05/06 02:13:03;;;;;;;6.40;6.00;;;23.90;77.70;;;;;;3566038;40;20477;-60
2021/05/06 02:15:35;;;;;;;6.97;6.37;;;23.90;77.70;;;;;;3557608;40;20481;-58
2021/05/06 02:18:03;;;;;;;6.32;6.03;;;23.90;77.70;;;;;;3557611;40;20589;-59
2021/05/06 02:20:30;;;;;;;6.50;6.13;;;23.90;77.70;;;;;;3561671;40;20231;-57
2021/05/06 02:23:01;;;;;;;6.33;6.03;;;23.90;77.70;;;;;;3556755;40;20490;-59
2021/05/06 02:25:28;;;;;;;5.70;5.40;;;23.90;77.60;;;;;;3558088;40;20498;-60
2021/05/06 02:27:56;;;;;;;5.73;5.53;;;23.90;77.60;;;;;;3548011;40;20494;-59
2021/05/06 02:30:23;;;;;;;6.50;6.10;;;23.90;77.70;;;;;;3556261;40;20479;-56
2021/05/06 02:32:50;;;;;;;6.60;6.20;;;23.90;77.70;;;;;;3556537;40;20486;-59
2021/05/06 02:35:17;;;;;;;6.10;5.80;;;23.90;77.70;;;;;;3556509;40;20495;-59
2021/05/06 02:37:44;;;;;;;7.00;6.50;;;23.90;77.70;;;;;;3555875;40;20842;-58
2021/05/06 02:40:11;;;;;;;6.20;5.90;;;23.90;77.60;;;;;;3556103;40;20578;-58
2021/05/06 02:42:38;;;;;;;6.00;5.80;;;23.90;77.70;;;;;;3555710;40;20547;-58
2021/05/06 02:45:10;;;;;;;6.90;6.50;;;23.90;77.70;;;;;;3547135;40;20592;-58
2021/05/06 02:47:37;;;;;;;5.93;5.63;;;23.90;77.70;;;;;;3556455;40;20482;-59
2021/05/06 02:50:09;;;;;;;6.93;6.53;;;23.90;77.70;;;;;;3556990;40;20924;-59
2021/05/06 02:52:45;;;;;;;6.80;6.30;;;23.90;77.70;;;;;;3547545;40;20493;-59
2021/05/06 02:55:36;;;;;;;6.93;6.57;;;23.90;77.70;;;;;;3558250;40;20492;-60
2021/05/06 02:58:11;;;;;;;6.97;6.67;;;23.90;77.70;;;;;;3564137;40;20483;-57
2021/05/06 03:03:50;;;;;;;6.03;5.75;;;23.90;77.70;;;;;;3542879;40;20498;-58
2021/05/06 03:06:20;;;;;;;6.63;6.27;;;23.90;77.70;;;;;;3559498;40;20928;-59
2021/05/06 03:08:52;;;;;;;6.67;6.37;;;23.90;77.70;;;;;;3565735;40;20474;-58
2021/05/06 03:11:33;;;;;;;6.50;6.10;;;23.90;77.70;;;;;;3558824;40;20491;-59
2021/05/06 03:25:12;;;;;;;6.60;6.20;;;23.90;77.60;;;;;;3558333;40;20527;-58
2021/05/06 03:27:46;;;;;;;7.50;7.10;;;23.90;77.60;;;;;;3555638;40;20561;-58
2021/05/06 03:30:31;;;;;;;6.80;6.40;;;23.90;78.30;;;;;;3563829;40;20486;-58
2021/05/06 03:34:38;;;;;;;6.50;6.20;;;23.90;77.60;;;;;;3565154;40;20489;-58
2021/05/06 03:44:21;;;;;;;7.50;7.03;;;23.90;77.50;;;;;;3557020;40;20727;-59
2021/05/06 03:50:01;;;;;;;6.83;6.53;;;24.00;77.60;;;;;;3561770;40;20485;-60
2021/05/06 04:12:46;;;;;;;7.90;7.53;;;24.00;77.40;;;;;;3554884;40;20533;-59
2021/05/06 04:18:10;;;;;;;7.27;6.97;;;24.00;77.30;;;;;;3539592;40;20483;-59
2021/05/06 04:26:26;;;;;;;8.00;7.60;;;24.10;77.30;;;;;;3554542;40;20573;-58
2021/05/06 04:37:04;;;;;;;7.57;7.20;;;24.20;77.20;;;;;;3554522;40;20511;-59
2021/05/06 04:39:42;;;;;;;7.67;7.13;;;24.20;77.10;;;;;;3553609;40;20491;-59
2021/05/06 04:53:38;;;;;;;8.13;7.67;;;24.20;77.10;;;;;;3553202;40;20471;-59
2021/05/06 04:56:30;;;;;;;8.20;7.90;;;24.20;77.00;;;;;;3562805;40;20516;-59
2021/05/06 04:59:17;;;;;;;7.87;7.57;;;24.20;76.90;;;;;;3562932;40;20477;-60
2021/05/06 05:04:32;;;;;;;8.20;7.82;;;24.30;76.90;;;;;;3560967;40;20506;-60
2021/05/06 05:07:08;;;;;;;8.10;7.70;;;24.30;76.90;;;;;;3551597;40;20252;-59
2021/05/06 05:09:51;;;;;;;7.70;7.30;;;24.30;76.80;;;;;;3560499;40;20226;-59
2021/05/06 05:12:29;;;;;;;7.40;7.10;;;24.30;76.80;;;;;;3559727;40;20753;-59
2021/05/06 05:15:08;;;;;;;7.40;7.10;;;24.30;77.40;;;;;;3560773;40;20489;-59
2021/05/06 05:17:44;;;;;;;7.53;7.13;;;24.40;76.80;;;;;;3559846;40;20495;-60
2021/05/06 05:20:15;;;;;;;6.93;6.63;;;24.40;76.80;;;;;;3550429;40;20225;-58
2021/05/06 05:25:32;;;;;;;7.13;6.90;;;24.40;76.70;;;;;;3551103;40;20555;-59
2021/05/06 05:28:03;;;;;;;7.13;6.83;;;24.40;76.70;;;;;;3549492;40;20480;-60
2021/05/06 05:30:31;;;;;;;6.70;6.50;;;24.40;76.70;;;;;;3548767;40;20762;-59
2021/05/06 05:32:58;;;;;;;7.80;7.40;;;24.40;76.70;;;;;;3547693;40;20550;-58
2021/05/06 05:35:35;;;;;;;7.20;6.80;;;24.40;76.80;;;;;;3556731;40;20501;-60
2021/05/06 05:38:08;;;;;;;7.50;7.20;;;24.40;76.70;;;;;;3559375;40;20481;-58
2021/05/06 05:40:40;;;;;;;7.13;6.90;;;24.30;76.60;;;;;;3558105;40;20489;-60
2021/05/06 05:43:23;;;;;;;7.10;6.80;;;24.30;76.60;;;;;;3557374;40;20484;-58
2021/05/06 05:57:09;;;;;;;7.03;6.73;;;24.30;76.60;;;;;;3514074;40;20490;-59
2021/05/06 05:59:36;;;;;;;8.10;7.60;;;24.30;76.70;;;;;;3539590;40;20498;-59
2021/05/06 06:02:04;;;;;;;8.20;7.47;;;24.30;77.50;;;;;;3554324;40;20513;-58
2021/05/06 06:04:30;;;;;;;6.80;6.50;;;24.30;76.80;;;;;;3550982;40;20483;-59
2021/05/06 06:06:57;;;;;;;7.57;6.97;;;24.30;76.90;;;;;;3544576;40;20809;-59
2021/05/06 06:09:24;;;;;;;7.40;7.00;;;24.30;77.00;;;;;;3547940;40;21307;-59
2021/05/06 06:11:52;;;;;;;7.27;6.87;;;24.30;77.20;;;;;;3550928;40;20487;-59
2021/05/06 06:14:21;;;;;;;7.57;6.97;;;24.30;77.30;;;;;;3542342;40;20490;-60
2021/05/06 06:16:49;;;;;;;7.40;6.90;;;24.30;77.50;;;;;;3551812;40;20522;-58
2021/05/06 06:19:18;;;;;;;7.50;6.80;;;24.20;66.60;;;;;;3549724;40;20526;-59
2021/05/06 06:21:49;;;;;;;8.00;7.50;;;24.00;58.80;;;;;;3551848;40;20472;-59
2021/05/06 06:24:16;;;;;;;8.03;7.43;;;23.80;57.00;;;;;;3552738;40;20792;-59
2021/05/06 06:26:44;;;;;;;7.23;6.67;;;23.60;55.90;;;;;;3551426;40;20534;-59
2021/05/06 06:29:13;;;;;;;7.30;7.00;;;23.40;55.90;;;;;;3552318;40;20559;-59
2021/05/06 06:31:44;;;;;;;8.20;7.80;;;23.20;56.20;;;;;;3550988;40;20600;-59
2021/05/06 06:34:11;;;;;;;8.20;7.70;;;23.00;56.50;;;;;;3540915;40;20524;-60
2021/05/06 06:36:39;;;;;;;8.67;8.07;;;22.80;57.00;;;;;;3553525;40;20937;-60
2021/05/06 06:39:07;;;;;;;8.67;7.83;;;22.60;55.60;;;;;;3550398;40;21178;-59
2021/05/06 06:41:33;;;;;;;8.57;7.97;;;22.50;55.60;;;;;;3549614;40;20490;-59
2021/05/06 06:44:02;;;;;;;8.10;7.60;;;22.30;56.00;;;;;;3547394;40;20482;-58
2021/05/06 06:46:30;;;;;;;8.70;8.13;;;22.10;57.20;;;;;;3550669;40;21155;-58
2021/05/06 06:48:58;;;;;;;7.97;7.32;;;22.10;60.50;;;;;;3549848;40;20485;-58
2021/05/06 06:51:25;;;;;;;7.97;7.43;;;22.30;63.50;;;;;;3549467;40;20251;-56
2021/05/06 06:53:52;;;;;;;7.17;6.73;;;22.50;65.30;;;;;;3545377;40;20525;-57
2021/05/06 06:56:18;;;;;;;7.30;6.80;;;22.60;66.30;;;;;;3550731;40;20495;-58
2021/05/06 06:58:49;;;;;;;7.97;7.20;;;22.80;67.00;;;;;;3549705;40;20569;-58
2021/05/06 07:01:16;;;;;;;7.80;7.17;;;23.00;67.60;;;;;;3550452;40;20485;-55
2021/05/06 07:03:43;;;;;;;7.60;7.13;;;23.10;67.90;;;;;;3549446;40;20495;-56
2021/05/06 07:06:11;;;;;;;7.00;6.60;;;23.20;68.10;;;;;;3548823;40;20499;-56
2021/05/06 07:08:42;;;;;;;7.00;6.30;;;23.30;68.40;;;;;;3550400;40;20499;-57
2021/05/06 07:11:11;;;;;;;6.80;6.50;;;23.50;68.70;;;;;;3551233;40;20606;-56
2021/05/06 07:13:38;;;;;;;6.80;6.50;;;23.60;68.90;;;;;;3551872;40;20491;-56
2021/05/06 07:16:06;;;;;;;7.20;6.60;;;23.60;69.00;;;;;;3550532;40;20501;-56
2021/05/06 07:18:33;;;;;;;7.90;7.17;;;23.70;69.10;;;;;;3548501;40;20477;-55
2021/05/06 07:21:01;;;;;;;6.97;6.67;;;23.80;69.30;;;;;;3549788;40;21181;-56
2021/05/06 07:23:29;;;;;;;7.50;6.87;;;23.90;69.50;;;;;;3551150;40;20488;-56
2021/05/06 07:25:57;;;;;;;7.50;7.00;;;23.90;69.50;;;;;;3550086;40;20506;-58
2021/05/06 07:28:31;;;;;;;7.83;7.40;;;23.90;69.60;;;;;;3547807;40;20481;-56
2021/05/06 07:31:01;;;;;;;7.63;7.10;;;24.00;69.70;;;;;;3550233;40;20487;-56
2021/05/06 07:33:29;;;;;;;6.77;6.30;;;24.00;69.80;;;;;;3551034;40;20487;-58
2021/05/06 07:35:57;;;;;;;7.27;6.87;;;24.00;69.90;;;;;;3549082;40;20879;-57
2021/05/06 07:38:24;;;;;;;7.57;6.97;;;24.10;70.10;;;;;;3548331;40;21207;-57
2021/05/06 07:40:51;;;;;;;7.40;6.90;;;24.10;70.20;;;;;;3549611;40;20482;-56
2021/05/06 07:43:22;;;;;;;8.07;7.53;;;24.10;70.30;;;;;;3547411;40;21358;-56
2021/05/06 07:45:49;;;;;;;12.40;8.03;;;24.20;70.50;;;;;;3539331;40;20490;-56
2021/05/06 07:48:16;;;;;;;7.90;7.40;;;24.20;71.30;;;;;;3539888;40;20483;-57
2021/05/06 07:50:43;;;;;;;7.83;7.20;;;24.20;70.60;;;;;;3548973;40;20501;-57
2021/05/06 07:53:11;;;;;;;7.10;6.70;;;24.20;70.70;;;;;;3548217;40;20490;-56
2021/05/06 07:55:38;;;;;;;7.30;6.90;;;24.20;70.80;;;;;;3547171;40;21011;-56
2021/05/06 07:58:06;;;;;;;7.90;7.10;;;24.20;70.80;;;;;;3548804;40;20493;-57
2021/05/06 08:00:35;;;;;;;7.60;7.10;;;24.20;71.00;;;;;;3549530;40;20514;-58
2021/05/06 08:03:04;;;;;;;7.60;7.10;;;24.20;71.10;;;;;;3546513;40;20498;-57
2021/05/06 08:05:31;;;;;;;7.93;7.43;;;24.20;71.30;;;;;;3545300;40;20490;-59
2021/05/06 08:07:58;;;;;;;8.90;8.10;;;24.20;71.50;;;;;;3537736;40;20493;-58
2021/05/06 08:10:26;;;;;;;7.33;6.97;;;24.20;71.40;;;;;;3547529;40;20491;-57
2021/05/06 08:12:54;;;;;;;12.82;6.80;;;24.20;71.50;;;;;;3547394;40;20488;-57
2021/05/06 08:15:22;;;;;;;7.20;6.63;;;24.20;71.60;;;;;;3546050;40;20406;-57
2021/05/06 08:17:50;;;;;;;11.27;6.80;;;24.20;71.80;;;;;;3549327;40;20505;-59
2021/05/06 08:20:19;;;;;;;7.43;6.73;;;24.20;71.80;;;;;;3549828;40;20489;-59
2021/05/06 08:22:48;;;;;;;7.33;6.73;;;24.20;71.80;;;;;;3540466;40;21018;-59
2021/05/06 08:25:16;;;;;;;6.97;6.53;;;24.20;71.90;;;;;;3546675;40;20572;-57
2021/05/06 08:27:43;;;;;;;6.73;6.40;;;24.20;72.00;;;;;;3544842;40;20560;-58
2021/05/06 08:30:14;;;;;;;7.37;6.97;;;24.30;72.30;;;;;;3545272;40;20505;-57
2021/05/06 08:32:43;;;;;;;7.60;7.10;;;24.20;72.30;;;;;;3547454;40;20492;-57
2021/05/06 08:35:11;;;;;;;6.70;6.40;;;24.20;72.40;;;;;;3547137;40;20883;-57
2021/05/06 08:37:39;;;;;;;7.27;6.60;;;24.20;72.70;;;;;;3547491;40;20494;-56
2021/05/06 08:40:08;;;;;;;7.20;6.60;;;24.20;72.70;;;;;;3547888;40;20496;-57
2021/05/06 08:42:34;;;;;;;7.73;7.07;;;24.20;72.80;;;;;;3538527;40;20485;-57
2021/05/06 08:45:03;;;;;;;6.28;5.90;;;24.20;72.90;;;;;;3546471;40;20503;-56
2021/05/06 08:47:32;;;;;;;7.10;6.60;;;24.20;73.00;;;;;;3546727;40;20476;-58
2021/05/06 08:49:59;;;;;;;9.60;7.30;;;24.20;73.10;;;;;;3546425;40;20576;-56
2021/05/06 08:52:28;;;;;;;7.57;6.80;;;24.20;73.10;;;;;;3539072;40;20489;-57
2021/05/06 08:54:57;;;;;;;8.67;6.87;;;24.20;73.20;;;;;;3537721;40;20747;-57
2021/05/06 08:57:24;;;;;;;6.80;6.20;;;24.20;73.30;;;;;;3546794;40;20493;-56
2021/05/06 08:59:52;;;;;;;6.27;5.83;;;24.20;73.30;;;;;;3538014;40;20480;-57
2021/05/06 09:02:20;;;;;;;7.43;6.83;;;24.20;73.40;;;;;;3541924;40;20525;-58
2021/05/06 09:04:46;;;;;;;8.10;6.63;;;24.20;73.40;;;;;;3545794;40;21177;-57
2021/05/06 09:07:14;;;;;;;7.40;6.43;;;24.20;73.50;;;;;;3545365;40;20494;-57
2021/05/06 09:09:48;;;;;;;7.43;6.90;;;24.20;73.60;;;;;;3546902;40;20485;-57
2021/05/06 09:12:17;;;;;;;6.73;6.23;;;24.20;73.60;;;;;;3548456;40;20474;-56
2021/05/06 09:14:47;;;;;;;7.32;6.75;;;24.20;73.80;;;;;;3547414;40;20646;-57
2021/05/06 09:17:27;;;;;;;6.70;6.40;;;24.10;73.80;;;;;;3547721;40;20601;-58
2021/05/06 09:20:11;;;;;;;6.80;6.50;;;24.20;73.90;;;;;;3550623;40;20486;-57
2021/05/06 09:22:41;;;;;;;7.40;6.90;;;24.10;73.80;;;;;;3548590;40;20568;-56
2021/05/06 09:25:25;;;;;;;7.30;6.70;;;24.10;73.80;;;;;;3549879;40;20482;-57
2021/05/06 09:28:08;;;;;;;7.33;6.90;;;24.10;74.00;;;;;;3548143;40;20784;-57
2021/05/06 09:30:37;;;;;;;7.43;6.90;;;24.10;74.00;;;;;;3548041;40;20690;-56
2021/05/06 09:33:05;;;;;;;6.63;6.23;;;24.10;74.00;;;;;;3549648;40;20509;-58
2021/05/06 09:35:41;;;;;;;6.60;6.20;;;24.10;74.10;;;;;;3551284;40;20551;-57
2021/05/06 09:38:26;;;;;;;7.10;6.70;;;24.10;74.30;;;;;;3547964;40;20487;-57
2021/05/06 09:40:57;;;;;;;7.07;6.67;;;24.10;74.30;;;;;;3550408;40;20779;-57
2021/05/06 09:43:26;;;;;;;6.63;6.33;;;24.10;74.30;;;;;;3553305;40;20499;-59
2021/05/06 09:45:54;;;;;;;7.10;6.50;;;24.10;74.30;;;;;;3550581;40;20579;-57
2021/05/06 09:48:22;;;;;;;6.60;6.30;;;24.10;74.40;;;;;;3551154;40;20487;-56
2021/05/06 09:50:52;;;;;;;6.93;6.53;;;24.10;74.50;;;;;;3548297;40;20486;-58
2021/05/06 09:53:21;;;;;;;7.30;6.83;;;24.10;74.60;;;;;;3551207;40;20485;-57
2021/05/06 09:55:48;;;;;;;8.07;7.67;;;24.00;74.50;;;;;;3548736;40;21261;-58
2021/05/06 09:58:18;;;;;;;7.38;6.97;;;24.00;74.60;;;;;;3547164;40;20703;-59
2021/05/06 10:00:46;;;;;;;7.10;6.80;;;24.00;74.70;;;;;;3547520;40;20224;-58
2021/05/06 10:03:14;;;;;;;7.70;7.30;;;24.00;74.80;;;;;;3549361;40;20753;-59
2021/05/06 10:05:43;;;;;;;7.27;6.87;;;24.00;74.80;;;;;;3541871;40;20505;-57
2021/05/06 10:08:09;;;;;;;7.80;7.27;;;24.00;74.80;;;;;;3544252;40;20484;-57
2021/05/06 10:10:36;;;;;;;6.97;6.57;;;24.00;74.90;;;;;;3550675;40;20631;-58
2021/05/06 10:13:04;;;;;;;7.37;6.90;;;24.00;75.00;;;;;;3548459;40;20486;-56
2021/05/06 10:15:33;;;;;;;8.80;7.87;;;24.00;75.00;;;;;;3548827;40;20489;-57
2021/05/06 10:18:00;;;;;;;7.20;6.60;;;24.00;75.00;;;;;;3548839;40;20492;-57
2021/05/06 10:20:28;;;;;;;8.07;7.53;;;24.00;75.10;;;;;;3547641;40;20756;-58
2021/05/06 10:22:56;;;;;;;8.40;7.80;;;24.00;75.20;;;;;;3550365;40;20942;-58
2021/05/06 10:25:25;;;;;;;8.47;7.90;;;24.00;75.30;;;;;;3551504;40;20493;-56
2021/05/06 10:27:53;;;;;;;10.27;9.37;;;24.00;75.50;;;;;;3549628;40;20482;-57
2021/05/06 10:30:21;;;;;;;10.10;9.17;;;24.00;75.70;;;;;;3546224;40;20490;-56
2021/05/06 10:32:51;;;;;;;9.57;8.93;;;24.00;75.80;;;;;;3548605;40;20490;-56
2021/05/06 10:35:20;;;;;;;10.30;9.30;;;24.00;76.00;;;;;;3546274;40;20528;-55
2021/05/06 10:37:55;;;;;;;10.13;9.30;;;24.00;76.00;;;;;;3552313;40;21181;-56
2021/05/06 10:40:28;;;;;;;11.43;10.00;;;24.00;76.10;;;;;;3551425;40;20477;-56
2021/05/06 10:42:55;;;;;;;10.37;9.53;;;24.00;76.20;;;;;;3548672;40;21137;-56
2021/05/06 10:45:34;;;;;;;10.83;9.93;;;24.00;76.20;;;;;;3548941;40;20494;-55
2021/05/06 10:48:02;;;;;;;11.47;10.17;;;24.00;76.30;;;;;;3549896;40;20492;-56
2021/05/06 10:50:38;;;;;;;10.40;9.60;;;24.00;76.20;;;;;;3547677;40;20489;-58
2021/05/06 10:53:06;;;;;;;9.97;9.17;;;24.00;76.30;;;;;;3546926;40;20504;-58
2021/05/06 10:55:48;;;;;;;8.73;8.23;;;24.00;76.40;;;;;;3546170;40;21609;-57
2021/05/06 10:58:38;;;;;;;9.10;8.50;;;23.90;76.40;;;;;;3548372;40;20251;-57
2021/05/06 11:01:23;;;;;;;10.63;9.50;;;24.00;76.50;;;;;;3538380;40;20472;-55
2021/05/06 11:04:30;;;;;;;9.32;8.73;;;24.00;76.50;;;;;;3549782;40;20248;-55
2021/05/06 11:07:11;;;;;;;9.43;8.63;;;23.90;76.50;;;;;;3528579;40;20224;-57
2021/05/06 11:09:53;;;;;;;9.53;8.70;;;24.00;76.50;;;;;;3549340;40;20497;-57
2021/05/06 11:12:31;;;;;;;9.53;8.83;;;23.90;76.40;;;;;;3549097;40;20505;-57
2021/05/06 11:15:33;;;;;;;9.87;8.53;;;23.90;76.40;;;;;;3550278;40;20497;-57
2021/05/06 11:18:05;;;;;;;10.23;9.43;;;23.90;76.50;;;;;;3548687;40;20494;-58
2021/05/06 11:20:42;;;;;;;11.40;10.50;;;23.90;76.50;;;;;;3547140;40;20491;-57
2021/05/06 11:23:29;;;;;;;9.40;8.70;;;23.90;76.60;;;;;;3540258;40;21480;-59
2021/05/06 11:26:05;;;;;;;9.83;9.13;;;23.90;76.70;;;;;;3548655;40;20517;-58
2021/05/06 11:28:52;;;;;;;10.00;9.20;;;23.90;76.70;;;;;;3552130;40;20543;-59
2021/05/06 11:31:49;;;;;;;9.40;8.50;;;23.90;76.80;;;;;;3548599;40;20478;-59
2021/05/06 11:34:38;;;;;;;10.10;8.57;;;23.90;76.70;;;;;;3536878;40;20613;-58
2021/05/06 11:37:14;;;;;;;8.77;8.00;;;23.90;76.80;;;;;;3551557;40;20478;-58
2021/05/06 11:40:16;;;;;;;9.17;8.57;;;23.90;76.80;;;;;;3548931;40;20563;-59
2021/05/06 11:42:44;;;;;;;8.33;7.83;;;23.90;76.90;;;;;;3547550;40;21287;-58
2021/05/06 11:45:21;;;;;;;8.73;8.13;;;23.90;76.90;;;;;;3544953;40;20512;-58
2021/05/06 11:47:48;;;;;;;11.80;8.10;;;23.90;77.00;;;;;;3548511;40;20473;-57
2021/05/06 11:50:20;;;;;;;9.07;8.40;;;23.80;77.00;;;;;;3549426;40;20506;-58
2021/05/06 11:52:48;;;;;;;9.47;8.70;;;23.80;77.00;;;;;;3546916;40;20571;-58
2021/05/06 11:55:38;;;;;;;9.13;8.63;;;23.80;77.10;;;;;;3547780;40;21419;-57
2021/05/06 11:58:06;;;;;;;9.00;8.30;;;23.80;77.10;;;;;;3550144;40;20482;-58
2021/05/06 12:00:34;;;;;;;9.03;8.33;;;23.80;77.10;;;;;;3549321;40;20594;-57
2021/05/06 12:03:05;;;;;;;9.00;8.30;;;23.80;77.20;;;;;;3550691;40;20539;-57
2021/05/06 12:05:49;;;;;;;9.63;9.03;;;23.80;77.20;;;;;;3550071;40;20587;-57
2021/05/06 12:08:16;;;;;;;9.50;8.90;;;23.80;77.30;;;;;;3550599;40;20496;-56
2021/05/06 12:10:43;;;;;;;9.70;8.80;;;23.80;77.30;;;;;;3547530;40;20920;-55
2021/05/06 12:13:10;;;;;;;9.30;8.70;;;23.80;77.30;;;;;;3548832;40;20520;-59
2021/05/06 12:15:37;;;;;;;8.67;8.17;;;23.80;77.30;;;;;;3550420;40;20486;-57
2021/05/06 12:18:21;;;;;;;9.27;8.47;;;23.80;77.30;;;;;;3549886;40;20489;-58
2021/05/06 12:20:51;;;;;;;8.53;8.00;;;23.80;77.40;;;;;;3538572;40;20499;-56
2021/05/06 12:23:19;;;;;;;9.00;8.33;;;23.80;77.30;;;;;;3536259;40;20473;-57
2021/05/06 12:25:45;;;;;;;8.50;7.90;;;23.80;77.40;;;;;;3539951;40;20583;-58
2021/05/06 12:28:12;;;;;;;8.97;8.37;;;23.80;77.50;;;;;;3548401;40;20485;-56
2021/05/06 12:30:39;;;;;;;9.00;8.30;;;23.80;77.50;;;;;;3549740;40;20493;-59
2021/05/06 12:33:07;;;;;;;7.87;7.33;;;23.80;77.60;;;;;;3549500;40;20482;-57
2021/05/06 12:35:47;;;;;;;8.32;7.63;;;23.80;77.60;;;;;;3548200;40;20495;-59
2021/05/06 12:38:15;;;;;;;8.37;7.70;;;23.80;77.70;;;;;;3549433;40;20234;-57
2021/05/06 12:40:43;;;;;;;8.00;7.40;;;23.80;77.70;;;;;;3549127;40;20481;-57
2021/05/06 12:43:28;;;;;;;8.23;7.75;;;23.80;77.70;;;;;;3549073;40;20475;-55
2021/05/06 12:46:03;;;;;;;8.00;7.50;;;23.80;77.90;;;;;;3549143;40;20243;-57
2021/05/06 12:48:45;;;;;;;10.33;7.70;;;23.80;77.80;;;;;;3548168;40;20476;-57
2021/05/06 12:51:14;;;;;;;7.60;7.00;;;23.80;77.80;;;;;;3550462;40;20965;-57
2021/05/06 12:54:06;;;;;;;8.53;7.90;;;23.80;77.80;;;;;;3549075;40;20488;-58
2021/05/06 12:56:36;;;;;;;8.43;7.83;;;23.70;77.70;;;;;;3548992;40;20961;-57
2021/05/06 12:59:21;;;;;;;8.80;8.00;;;23.70;77.70;;;;;;3551277;40;21294;-53
2021/05/06 13:01:49;;;;;;;7.83;7.23;;;23.70;77.80;;;;;;3550329;40;20486;-56
2021/05/06 13:04:15;;;;;;;8.17;7.67;;;23.70;77.80;;;;;;3549703;40;20481;-57
2021/05/06 13:06:43;;;;;;;8.27;7.70;;;23.70;77.80;;;;;;3547310;40;20496;-56
2021/05/06 13:09:14;;;;;;;8.03;7.53;;;23.70;77.80;;;;;;3552054;40;20474;-57
2021/05/06 13:11:43;;;;;;;7.73;7.33;;;23.70;77.90;;;;;;3551009;40;20481;-58
2021/05/06 13:14:09;;;;;;;7.60;7.18;;;23.70;78.00;;;;;;3548650;40;20487;-56
2021/05/06 13:16:42;;;;;;;8.23;7.47;;;23.70;78.10;;;;;;3551113;40;20225;-58
2021/05/06 13:19:10;;;;;;;7.83;7.23;;;23.70;78.10;;;;;;3550887;40;21476;-56
2021/05/06 13:21:46;;;;;;;10.23;7.23;;;23.70;78.00;;;;;;3552449;40;20620;-57
2021/05/06 13:24:15;;;;;;;8.00;7.50;;;23.70;78.00;;;;;;3542121;40;20503;-57
2021/05/06 13:26:43;;;;;;;8.88;8.00;;;23.70;78.00;;;;;;3549553;40;20482;-58
2021/05/06 13:29:14;;;;;;;9.20;8.40;;;23.70;78.10;;;;;;3550454;40;20227;-58
2021/05/06 13:31:42;;;;;;;8.13;7.53;;;23.70;78.10;;;;;;3543677;40;20515;-57
2021/05/06 13:34:13;;;;;;;8.10;7.50;;;23.70;78.10;;;;;;3546959;40;20496;-58
2021/05/06 13:36:41;;;;;;;8.73;7.93;;;23.70;78.10;;;;;;3544213;40;20933;-57
2021/05/06 13:39:09;;;;;;;7.45;6.95;;;23.70;78.10;;;;;;3550760;40;20488;-57
2021/05/06 13:41:39;;;;;;;7.50;7.10;;;23.70;78.10;;;;;;3551107;40;20229;-57
2021/05/06 13:44:09;;;;;;;8.23;7.10;;;23.70;78.20;;;;;;3551140;40;20505;-58
2021/05/06 13:46:52;;;;;;;7.13;6.73;;;23.70;78.20;;;;;;3550301;40;20486;-59
2021/05/06 13:49:19;;;;;;;8.30;7.50;;;23.70;78.20;;;;;;3552455;40;20475;-58
2021/05/06 13:51:47;;;;;;;8.50;7.90;;;23.70;78.20;;;;;;3552869;40;20565;-57
2021/05/06 13:54:13;;;;;;;8.20;7.60;;;23.70;78.20;;;;;;3549814;40;20586;-58
2021/05/06 13:56:40;;;;;;;8.35;7.75;;;23.60;78.20;;;;;;3542111;40;20509;-57
2021/05/06 13:59:07;;;;;;;8.47;7.87;;;23.60;78.20;;;;;;3550573;40;20226;-56
2021/05/06 14:01:34;;;;;;;7.47;6.87;;;23.60;78.20;;;;;;3552450;40;20585;-57
2021/05/06 14:04:01;;;;;;;8.20;7.70;;;23.60;78.30;;;;;;3551083;40;20500;-58
2021/05/06 14:06:27;;;;;;;7.43;7.00;;;23.60;78.20;;;;;;3549810;40;20484;-57
2021/05/06 14:08:54;;;;;;;7.30;6.70;;;23.60;78.30;;;;;;3552217;40;20504;-56
2021/05/06 14:11:21;;;;;;;7.83;6.70;;;23.60;78.30;;;;;;3552295;40;21143;-55
2021/05/06 14:13:48;;;;;;;7.40;7.00;;;23.60;78.40;;;;;;3553380;40;21285;-55
2021/05/06 14:16:17;;;;;;;7.13;6.63;;;23.60;79.10;;;;;;3554094;40;20520;-56
2021/05/06 14:18:44;;;;;;;8.07;7.50;;;23.60;78.40;;;;;;3553196;40;21040;-56
2021/05/06 14:21:14;;;;;;;8.17;7.60;;;23.60;78.40;;;;;;3553049;40;20242;-56
2021/05/06 14:23:44;;;;;;;7.40;6.90;;;23.60;78.40;;;;;;3551163;40;20515;-57
2021/05/06 14:26:11;;;;;;;8.27;7.43;;;23.60;78.40;;;;;;3552347;40;20768;-57
2021/05/06 14:28:37;;;;;;;7.40;7.00;;;23.60;78.50;;;;;;3552429;40;20482;-57
2021/05/06 14:31:05;;;;;;;6.80;6.40;;;23.60;78.40;;;;;;3553193;40;20764;-55
2021/05/06 14:33:33;;;;;;;7.70;7.10;;;23.60;78.50;;;;;;3550844;40;20490;-56
2021/05/06 14:36:00;;;;;;;7.07;6.68;;;23.60;78.50;;;;;;3552319;40;20601;-56
2021/05/06 14:38:27;;;;;;;6.90;6.50;;;23.60;78.50;;;;;;3552989;40;20238;-57
2021/05/06 14:40:53;;;;;;;8.00;7.60;;;23.60;78.50;;;;;;3543244;40;20495;-57
2021/05/06 14:43:20;;;;;;;7.60;7.10;;;23.60;78.50;;;;;;3543714;40;20865;-58
2021/05/06 14:45:47;;;;;;;7.20;6.80;;;23.60;78.50;;;;;;3551177;40;20480;-57
2021/05/06 14:48:15;;;;;;;7.53;7.13;;;23.60;78.50;;;;;;3551020;40;20581;-58
2021/05/06 14:50:43;;;;;;;6.53;6.23;;;23.60;78.50;;;;;;3553664;40;20243;-56
2021/05/06 14:53:10;;;;;;;7.70;7.10;;;23.60;78.50;;;;;;3553751;40;20481;-57
2021/05/06 14:55:38;;;;;;;8.27;7.57;;;23.60;78.50;;;;;;3552979;40;20493;-58
2021/05/06 14:58:05;;;;;;;6.63;6.33;;;23.60;78.50;;;;;;3552396;40;20530;-58
2021/05/06 15:00:32;;;;;;;6.70;6.40;;;23.60;78.50;;;;;;3543996;40;20502;-58
2021/05/06 15:03:00;;;;;;;42.80;32.73;;;23.60;78.50;;;;;;3555402;40;20489;-57
2021/05/06 15:05:27;;;;;;;71.37;52.57;;;23.60;78.60;;;;;;3544061;40;20570;-58
2021/05/06 15:07:56;;;;;;;81.20;56.60;;;23.50;78.50;;;;;;3546026;40;20489;-58
2021/05/06 15:10:23;;;;;;;83.80;59.57;;;23.50;78.60;;;;;;3545303;40;20506;-57
2021/05/06 15:12:51;;;;;;;86.18;61.35;;;23.50;78.60;;;;;;3545837;40;20520;-57
2021/05/06 15:15:17;;;;;;;93.73;67.03;;;23.50;78.50;;;;;;3543805;40;20337;-58
2021/05/06 15:17:44;;;;;;;87.37;64.60;;;23.50;78.60;;;;;;3543089;40;20481;-53
2021/05/06 15:20:12;;;;;;;96.27;65.17;;;23.50;78.60;;;;;;3545309;40;20966;-56
2021/05/06 15:22:38;;;;;;;89.60;63.10;;;23.50;78.60;;;;;;3545811;40;20493;-56
2021/05/06 15:25:10;;;;;;;90.93;60.37;;;23.50;78.80;;;;;;3545255;40;20486;-56
2021/05/06 15:27:37;;;;;;;90.90;61.70;;;23.50;78.90;;;;;;3545566;40;20587;-57
2021/05/06 15:30:06;;;;;;;82.30;60.60;;;23.50;78.90;;;;;;3546171;40;20503;-57
2021/05/06 15:32:33;;;;;;;93.43;62.67;;;23.50;79.00;;;;;;3545744;40;20578;-56
2021/05/06 15:35:01;;;;;;;87.67;58.03;;;23.50;79.00;;;;;;3547098;40;21051;-58
2021/05/06 15:37:28;;;;;;;80.30;58.80;;;23.50;79.10;;;;;;3545389;40;20497;-58
2021/05/06 15:39:56;;;;;;;82.13;61.00;;;23.50;79.10;;;;;;3544554;40;20230;-58
2021/05/06 15:42:24;;;;;;;77.83;58.23;;;23.50;79.20;;;;;;3545957;40;20493;-57